KANB/ANB METAR and TAF weather

Enter ICAO airport designator
Station Type Date Time Source
KANB METAR 2021/01/27 13:53 UTC NOAA

KANB 271353Z AUTO 04006KT 10SM BKN070 OVC110 11/09 A3003 RMK AO2 RAE20 SLP171 T01060094 PNO $


Station Type Date Time Source
KANB Decoded METAR 2021/01/27 13:53 UTC NOAA

ANNISTON METRO AIRPORT, AL, United States (KANB) 33-35N 085-51W 183M
Jan 27, 2021 - 08:53 AM EST / 2021.01.27 1353 UTC
Wind: from the NE (040 degrees) at 7 MPH (6 KT):0
Visibility: 10 mile(s):0
Sky conditions: overcast
Temperature: 51.1 F (10.6 C)
Dew Point: 48.9 F (9.4 C)
Relative Humidity: 92%
Pressure (altimeter): 30.03 in. Hg (1016 hPa)
ob: KANB 271353Z AUTO 04006KT 10SM BKN070 OVC110 11/09 A3003 RMK AO2 RAE20 SLP171 T01060094 PNO
cycle: 14

Station Type Date Time Source
KANB TAF 2021/01/27 12:24 UTC NOAA

TAF KANB 271121Z 2712/2812 VRB03KT 5SM -SHRA BR OVC040
FM271500 08006KT P6SM BKN030
FM271800 13007KT P6SM VCSH BKN025
FM272100 27007KT 6SM SHRA BR OVC008
FM280000 31011G22KT P6SM OVC018
FM280900 34009KT P6SM BKN016

Example: see airport list